Ocean Grove, NJ (07756)

6:51 PM EST on December 10, 2016 (GMT -0500)
Ocean Grove | | Change Station

Elev 56 ft 40.21 °N, 74.01 °W | Updated 22 seconds ago

Partly Cloudy
Partly Cloudy
30.8 °F
Feels Like 31 °F
N
3.0
Wind Variable Wind from WSW

Today
High -- | Low -- °F
--% Chance of Precip.
Yesterday
High -- | Low -- °F
Precip. -- in
Pressure 30.45 in
Visibility 10.0 miles
Clouds Mostly Cloudy 6500 ft
Windchill 31 °F
Dew Point 17 °F
Humidity 55%
Rainfall 0.00 in
Snow Depth Not available.
7:07 AM 4:30 PM
Waxing Gibbous, 87% visible
METAR KBLM 102256Z AUTO 29004KT 10SM BKN065 M01/M08 A3043 RMK AO2 SLP309 T10111083 FZRANO
Pressure 30.45 in
Visibility 10.0 miles
Clouds Mostly Cloudy 6500 ft
Windchill 31 °F
Dew Point 17 °F
Humidity 55%
Rainfall 0.00 in
Snow Depth Not available.
7:07 AM 4:30 PM
Waxing Gibbous, 87% visible
METAR KBLM 102256Z AUTO 29004KT 10SM BKN065 M01/M08 A3043 RMK AO2 SLP309 T10111083 FZRANO

10-Day Weather Forecast

Almanac

Astronomy

Dec. 10, 2016 Rise Set
Actual Time
Civil Twilight
Nautical Twilight
Astronomical Twilight
Moon
Length of Visible Light
Length of Day
Tomorrow will be .
, % of the Moon is Illuminated

Today's Extremes

State Highs State Lows

Community

WunderPhotos

Upload Photos

1,956,677 photos uploaded!

WunderBlog® & News

Nearby

Air Quality

  Air Quality AQ Index Pollutant
Not available.

Snow Depth

Station Depth Elevation

Earthquake Activity

City Distance Mag. Time & Date
Minimum magnitude displayed is 2.5.

Coastal Water Temperatures

Place Temperature

Stations

Nearby Weather Stations

Station Location Temp. Windchill Dew Point Humidity Wind Precip. Elev Updated Type
                   

Watches & Warnings

There are currently no watches in effect.